createdAt,value
2023-05-06T00:00:19.950Z,4.77
2023-05-06T00:03:08.084Z,29.10
2023-05-06T00:05:57.887Z,3.60
2023-05-06T00:08:46.691Z,3.73
2023-05-06T00:11:34.824Z,3.93
2023-05-06T00:14:22.856Z,3.97
2023-05-06T00:17:11.118Z,4.27
2023-05-06T00:19:59.041Z,6.50
2023-05-06T00:22:48.541Z,35.10
2023-05-06T00:25:36.552Z,38.10
2023-05-06T00:28:24.500Z,57.00
2023-05-06T00:31:12.432Z,5.60
2023-05-06T00:34:00.361Z,3.90
2023-05-06T00:36:48.317Z,4.23
2023-05-06T00:39:37.626Z,4.10
2023-05-06T00:42:25.572Z,4.37
2023-05-06T00:45:13.561Z,3.90
2023-05-06T00:48:01.885Z,181.03
2023-05-06T00:50:50.694Z,10.07
2023-05-06T00:53:39.801Z,37.47
2023-05-06T00:56:29.699Z,7.10
2023-05-06T00:59:17.716Z,3.73
2023-05-06T01:02:05.856Z,3.23
2023-05-06T01:04:55.614Z,3.10
2023-05-06T01:07:48.583Z,3.20
2023-05-06T01:10:45.155Z,3.47
2023-05-06T01:13:41.470Z,23.93
2023-05-06T01:16:32.823Z,4.23
2023-05-06T01:19:36.710Z,2.50
2023-05-06T01:22:25.969Z,3.60
2023-05-06T01:25:20.694Z,3.07
2023-05-06T01:28:10.553Z,4.07
2023-05-06T01:31:00.830Z,3.00
2023-05-06T01:33:57.187Z,5.63
2023-05-06T01:36:54.634Z,3.00
2023-05-06T01:39:44.006Z,2.97
2023-05-06T01:42:35.754Z,3.93
2023-05-06T01:45:27.851Z,3.20
2023-05-06T01:48:16.481Z,3.53
2023-05-06T01:51:04.994Z,3.80
2023-05-06T01:53:53.211Z,3.57
2023-05-06T01:56:41.137Z,5.43
2023-05-06T01:59:30.530Z,4.27
2023-05-06T02:02:18.476Z,3.90
2023-05-06T02:05:07.707Z,3.77
2023-05-06T02:07:55.898Z,4.23
2023-05-06T02:10:43.804Z,3.63
2023-05-06T02:13:31.691Z,4.33
2023-05-06T02:16:21.980Z,5.60
2023-05-06T02:19:10.045Z,3.93
2023-05-06T02:21:58.223Z,6.03
2023-05-06T02:24:46.159Z,3.57
2023-05-06T02:27:34.190Z,4.00
2023-05-06T02:30:22.147Z,3.40
2023-05-06T02:33:11.462Z,4.43
2023-05-06T02:35:59.433Z,3.33
2023-05-06T02:38:47.367Z,3.13
2023-05-06T02:41:35.382Z,3.70
2023-05-06T02:44:23.283Z,3.00
2023-05-06T02:47:11.230Z,4.03
2023-05-06T02:50:00.687Z,3.30
2023-05-06T02:52:48.664Z,3.17
2023-05-06T02:55:36.613Z,4.33
2023-05-06T02:58:24.614Z,4.17
2023-05-06T03:01:12.689Z,3.33
2023-05-06T03:04:00.824Z,3.20
2023-05-06T03:06:50.097Z,2.93
2023-05-06T03:09:38.088Z,3.07
2023-05-06T03:12:26.711Z,3.10
2023-05-06T03:15:14.709Z,13.63
2023-05-06T03:18:02.715Z,3.60
2023-05-06T03:20:51.010Z,2.57
2023-05-06T03:23:40.278Z,2.57
2023-05-06T03:26:28.312Z,5.53
2023-05-06T03:29:16.269Z,3.93
2023-05-06T03:32:04.763Z,3.57
2023-05-06T03:34:52.694Z,3.43
2023-05-06T03:37:41.301Z,4.20
2023-05-06T03:40:31.154Z,3.40
2023-05-06T03:43:19.213Z,3.73
2023-05-06T03:46:07.931Z,3.73
2023-05-06T03:48:56.044Z,3.50
2023-05-06T03:51:44.132Z,3.90
2023-05-06T03:54:32.299Z,8.10
2023-05-06T03:57:21.642Z,13.20
2023-05-06T04:00:10.818Z,7.70
2023-05-06T04:02:59.083Z,40.93
2023-05-06T04:05:47.338Z,38.13
2023-05-06T04:08:35.381Z,46.30
2023-05-06T04:11:23.333Z,91.83
2023-05-06T04:14:12.601Z,24.97
2023-05-06T04:17:00.815Z,161.30
2023-05-06T04:19:48.944Z,144.20
2023-05-06T04:22:36.888Z,195.67
2023-05-06T04:25:25.147Z,97.73
2023-05-06T04:28:14.213Z,65.07
2023-05-06T04:31:03.519Z,163.07
2023-05-06T04:33:53.445Z,84.70
2023-05-06T04:36:41.958Z,43.23
2023-05-06T04:39:31.885Z,246.33
2023-05-06T04:42:19.861Z,73.50
2023-05-06T04:45:09.533Z,52.70
2023-05-06T04:47:58.982Z,88.10
2023-05-06T04:50:46.988Z,109.00
2023-05-06T04:53:35.006Z,102.77
2023-05-06T04:56:22.962Z,44.87
2023-05-06T04:59:11.082Z,145.23
2023-05-06T05:01:59.176Z,84.50
2023-05-06T05:04:48.562Z,96.83
2023-05-06T05:07:36.545Z,97.90
2023-05-06T05:10:24.602Z,71.27
2023-05-06T05:13:12.489Z,72.40
2023-05-06T05:16:00.962Z,28.23
2023-05-06T05:18:49.005Z,41.13
2023-05-06T05:21:38.344Z,56.67
2023-05-06T05:24:26.319Z,129.27
2023-05-06T05:27:14.443Z,120.70
2023-05-06T05:30:02.397Z,44.93
2023-05-06T05:32:50.808Z,212.33
2023-05-06T05:35:39.198Z,58.33
2023-05-06T05:38:28.470Z,98.97
2023-05-06T05:41:17.590Z,119.90
2023-05-06T05:44:05.918Z,133.33
2023-05-06T05:46:54.187Z,42.53
2023-05-06T05:49:42.349Z,43.17
2023-05-06T05:52:30.591Z,94.97
2023-05-06T05:55:19.909Z,27.67
2023-05-06T05:58:11.419Z,25.67
2023-05-06T06:01:00.017Z,51.23
2023-05-06T06:03:48.902Z,17.73
2023-05-06T06:06:37.024Z,18.27
2023-05-06T06:09:25.065Z,19.40
2023-05-06T06:12:14.420Z,25.23
2023-05-06T06:15:02.381Z,57.10
2023-05-06T06:17:50.371Z,28.90
2023-05-06T06:20:38.393Z,59.70
2023-05-06T06:23:26.452Z,24.20
2023-05-06T06:26:14.609Z,22.57
2023-05-06T06:29:03.966Z,23.07
2023-05-06T06:31:51.993Z,37.07
2023-05-06T06:34:40.153Z,39.07
2023-05-06T06:37:28.104Z,23.53
2023-05-06T06:40:16.426Z,17.00
2023-05-06T06:43:04.514Z,19.70
2023-05-06T06:45:53.783Z,145.17
2023-05-06T06:48:41.769Z,77.57
2023-05-06T06:51:29.716Z,169.93
2023-05-06T06:54:17.669Z,18.20
2023-05-06T06:57:06.961Z,18.93
2023-05-06T06:59:55.714Z,72.77
2023-05-06T07:02:48.081Z,20.70
2023-05-06T07:05:36.031Z,17.00
2023-05-06T07:08:24.008Z,14.73
2023-05-06T07:11:14.325Z,16.40
2023-05-06T07:14:02.398Z,15.47
2023-05-06T07:16:51.553Z,15.10
2023-05-06T07:19:41.025Z,22.53
2023-05-06T07:22:29.320Z,15.13
2023-05-06T07:25:17.281Z,14.03
2023-05-06T07:28:05.833Z,14.07
2023-05-06T07:30:54.132Z,12.90
2023-05-06T07:33:42.221Z,15.27
2023-05-06T07:36:36.502Z,15.07
2023-05-06T07:39:26.025Z,15.77
2023-05-06T07:42:14.009Z,17.13
2023-05-06T07:45:01.933Z,12.80
2023-05-06T07:47:50.013Z,14.33
2023-05-06T07:50:38.136Z,14.80
2023-05-06T07:53:27.843Z,14.40
2023-05-06T07:56:15.780Z,12.10
2023-05-06T07:59:03.893Z,13.93
2023-05-06T08:01:52.211Z,12.40
2023-05-06T08:04:40.302Z,9.83
2023-05-06T08:07:28.272Z,8.93
2023-05-06T08:10:17.492Z,9.17
2023-05-06T08:13:05.531Z,8.23
2023-05-06T08:15:53.754Z,6.93
2023-05-06T08:18:41.876Z,5.30
2023-05-06T08:21:29.807Z,6.53
2023-05-06T08:24:17.779Z,6.20
2023-05-06T08:27:08.084Z,6.00
2023-05-06T08:29:55.991Z,6.83
2023-05-06T08:32:43.982Z,6.90
2023-05-06T08:35:31.940Z,5.20
2023-05-06T08:38:19.835Z,6.00
2023-05-06T08:41:12.902Z,6.50
2023-05-06T08:44:04.400Z,7.83
2023-05-06T08:46:52.626Z,5.37
2023-05-06T08:49:40.551Z,5.10
2023-05-06T08:52:29.644Z,5.27
2023-05-06T08:55:18.234Z,5.07
2023-05-06T08:58:08.683Z,2.93
2023-05-06T09:00:58.710Z,3.90
2023-05-06T09:03:48.477Z,2.03
2023-05-06T09:06:36.489Z,3.33
2023-05-06T09:09:24.389Z,9.40
2023-05-06T09:12:13.632Z,8.03
2023-05-06T09:15:01.568Z,13.70
2023-05-06T09:17:50.964Z,27.37
2023-05-06T09:20:42.909Z,10.67
2023-05-06T09:23:30.982Z,14.60
2023-05-06T09:26:18.910Z,4.80
2023-05-06T09:29:07.273Z,2.60
2023-05-06T09:31:56.370Z,2.27
2023-05-06T09:34:46.662Z,22.50
2023-05-06T09:37:34.588Z,6.43
2023-05-06T09:40:25.849Z,4.70
2023-05-06T09:43:15.584Z,13.33
2023-05-06T09:46:06.024Z,5.77
2023-05-06T09:48:55.667Z,1.70
2023-05-06T09:51:48.020Z,1.77
2023-05-06T09:54:36.585Z,6.70
2023-05-06T09:57:25.402Z,3.73
2023-05-06T10:00:14.420Z,2.27
2023-05-06T10:03:03.175Z,1.40
2023-05-06T10:05:52.721Z,1.23
2023-05-06T10:08:42.873Z,2.73
2023-05-06T10:11:32.042Z,2.97
2023-05-06T10:14:20.505Z,1.10
2023-05-06T10:17:10.739Z,1.53
2023-05-06T10:20:01.471Z,3.33
2023-05-06T10:23:00.897Z,1.70
2023-05-06T10:25:54.278Z,1.50
2023-05-06T10:28:44.120Z,1.57
2023-05-06T10:31:33.829Z,1.20
2023-05-06T10:34:23.867Z,2.50
2023-05-06T10:37:13.556Z,2.93
2023-05-06T10:40:01.700Z,1.30
2023-05-06T10:42:51.457Z,1.30
2023-05-06T10:46:05.049Z,1.37
2023-05-06T10:49:19.904Z,1.90
2023-05-06T10:52:13.199Z,2.00
2023-05-06T10:55:01.132Z,1.90
2023-05-06T10:57:54.690Z,1.10
2023-05-06T11:00:43.097Z,2.63
2023-05-06T11:03:33.563Z,4.47
2023-05-06T11:06:35.960Z,2.20
2023-05-06T11:09:25.300Z,1.40
2023-05-06T11:12:13.262Z,2.17
2023-05-06T11:15:20.919Z,2.60
2023-05-06T11:18:45.144Z,1.37
2023-05-06T11:21:40.150Z,1.77
2023-05-06T11:24:29.936Z,2.50
2023-05-06T11:27:19.602Z,2.40
2023-05-06T11:30:14.271Z,2.00
2023-05-06T11:33:05.969Z,2.13
2023-05-06T11:35:54.353Z,3.60
2023-05-06T11:38:43.492Z,2.50
2023-05-06T11:41:31.459Z,2.17
2023-05-06T11:44:30.135Z,2.53
2023-05-06T11:47:18.087Z,1.30
2023-05-06T11:50:08.943Z,1.60
2023-05-06T11:52:57.217Z,2.37
2023-05-06T11:55:45.563Z,2.67
2023-05-06T11:58:33.928Z,2.20
2023-05-06T12:01:21.986Z,1.50
2023-05-06T12:04:10.294Z,1.10
2023-05-06T12:06:59.809Z,1.83
2023-05-06T12:09:50.002Z,1.77
2023-05-06T12:12:38.331Z,1.63
2023-05-06T12:15:26.493Z,1.47
2023-05-06T12:18:14.764Z,3.30
2023-05-06T12:21:03.747Z,1.33
2023-05-06T12:23:53.892Z,1.30
2023-05-06T12:26:47.240Z,1.50
2023-05-06T12:29:35.373Z,2.23
2023-05-06T12:32:23.380Z,1.37
2023-05-06T12:35:26.065Z,1.93
2023-05-06T12:38:15.164Z,2.40
2023-05-06T12:41:06.954Z,1.53
2023-05-06T12:43:54.940Z,2.90
2023-05-06T12:46:52.474Z,1.90
2023-05-06T12:49:51.114Z,1.47
2023-05-06T12:52:45.175Z,1.30
2023-05-06T12:55:33.480Z,1.57
2023-05-06T12:58:22.864Z,1.83
2023-05-06T13:01:10.884Z,1.20
2023-05-06T13:03:58.977Z,2.63
2023-05-06T13:06:47.837Z,2.73
2023-05-06T13:09:35.921Z,1.37
2023-05-06T13:12:23.999Z,2.43
2023-05-06T13:15:13.544Z,4.60
2023-05-06T13:18:01.691Z,2.03
2023-05-06T13:20:49.748Z,1.73
2023-05-06T13:23:40.057Z,1.63
2023-05-06T13:26:28.177Z,2.17
2023-05-06T13:29:17.442Z,1.43
2023-05-06T13:32:08.846Z,1.40
2023-05-06T13:34:57.242Z,2.30
2023-05-06T13:37:45.328Z,2.33
2023-05-06T13:40:33.280Z,1.30
2023-05-06T13:43:22.085Z,1.20
2023-05-06T13:46:10.538Z,2.40
2023-05-06T13:48:59.877Z,1.80
2023-05-06T13:51:47.836Z,1.23
2023-05-06T13:54:35.862Z,1.80
2023-05-06T13:57:25.891Z,1.50
2023-05-06T14:00:15.288Z,1.20
2023-05-06T14:03:03.541Z,3.60
2023-05-06T14:05:53.009Z,2.07
2023-05-06T14:08:41.376Z,2.47
2023-05-06T14:11:29.383Z,1.73
2023-05-06T14:14:17.266Z,1.20
2023-05-06T14:17:05.222Z,1.93
2023-05-06T14:19:53.270Z,2.37
2023-05-06T14:22:43.014Z,1.30
2023-05-06T14:25:30.975Z,1.60
2023-05-06T14:28:18.963Z,2.40
2023-05-06T14:31:07.174Z,1.47
2023-05-06T14:33:56.447Z,2.53
2023-05-06T14:36:44.672Z,1.93
2023-05-06T14:39:34.050Z,1.63
2023-05-06T14:42:22.029Z,1.50
2023-05-06T14:45:11.004Z,1.80
2023-05-06T14:47:59.276Z,3.17
2023-05-06T14:50:47.226Z,2.13
2023-05-06T14:53:35.160Z,2.40
2023-05-06T14:56:24.524Z,5.87
2023-05-06T14:59:12.459Z,3.53
2023-05-06T15:02:00.410Z,2.80
2023-05-06T15:04:48.340Z,3.67
2023-05-06T15:07:36.442Z,2.43
2023-05-06T15:10:25.320Z,3.17
2023-05-06T15:13:14.694Z,2.17
2023-05-06T15:16:02.738Z,3.47
2023-05-06T15:18:50.697Z,3.40
2023-05-06T15:21:38.864Z,3.50
2023-05-06T15:24:27.143Z,4.23
2023-05-06T15:27:15.209Z,4.07
2023-05-06T15:30:05.052Z,3.70
2023-05-06T15:32:53.026Z,6.27
2023-05-06T15:35:41.084Z,4.03
2023-05-06T15:38:28.997Z,2.50
2023-05-06T15:41:17.035Z,2.63
2023-05-06T15:44:06.378Z,3.50
2023-05-06T15:46:55.966Z,2.97
2023-05-06T15:52:35.083Z,2.70
2023-05-06T15:55:25.104Z,5.80
2023-05-06T15:58:13.728Z,4.20
2023-05-06T16:01:02.318Z,3.37
2023-05-06T16:03:53.446Z,5.67
2023-05-06T16:06:41.505Z,3.00
2023-05-06T16:09:29.456Z,2.40
2023-05-06T16:12:17.491Z,6.43
2023-05-06T16:15:05.994Z,2.53
2023-05-06T16:17:53.945Z,2.17
2023-05-06T16:20:43.408Z,2.80
2023-05-06T16:23:31.650Z,1.63
2023-05-06T16:26:19.667Z,2.60
2023-05-06T16:29:07.616Z,1.93
2023-05-06T16:31:55.789Z,6.30
2023-05-06T16:34:43.813Z,4.50
2023-05-06T16:37:33.117Z,2.17
2023-05-06T16:40:21.884Z,2.80
2023-05-06T16:43:10.510Z,1.80
2023-05-06T16:45:58.458Z,1.60
2023-05-06T16:48:46.481Z,2.20
2023-05-06T16:51:34.595Z,2.40
2023-05-06T16:54:24.040Z,2.07
2023-05-06T16:57:12.054Z,2.27
2023-05-06T17:00:00.010Z,3.27
2023-05-06T17:02:48.177Z,2.50
2023-05-06T17:05:36.434Z,2.70
2023-05-06T17:08:26.730Z,3.57
2023-05-06T17:11:16.891Z,5.27
2023-05-06T17:14:04.978Z,3.60
2023-05-06T17:16:53.060Z,2.73
2023-05-06T17:19:41.192Z,2.80
2023-05-06T17:22:29.157Z,2.47
2023-05-06T17:25:17.134Z,3.83
2023-05-06T17:28:06.440Z,2.73
2023-05-06T17:30:54.401Z,3.93
2023-05-06T17:33:42.386Z,3.50
2023-05-06T17:36:31.220Z,2.30
2023-05-06T17:39:19.206Z,3.20
2023-05-06T17:42:08.413Z,3.80
2023-05-06T17:44:57.857Z,2.50
2023-05-06T17:47:45.840Z,3.73
2023-05-06T17:50:33.919Z,4.97
2023-05-06T17:53:21.989Z,5.20
2023-05-06T17:56:10.178Z,3.77
2023-05-06T17:59:02.418Z,2.13
2023-05-06T18:01:51.932Z,2.90
2023-05-06T18:04:39.999Z,7.40
2023-05-06T18:07:27.974Z,15.23
2023-05-06T18:10:16.291Z,17.53
2023-05-06T18:13:04.333Z,20.83
2023-05-06T18:15:52.342Z,12.23
2023-05-06T18:18:41.828Z,3.73
2023-05-06T18:21:29.844Z,3.07
2023-05-06T18:24:18.308Z,5.20
2023-05-06T18:27:06.554Z,14.93
2023-05-06T18:29:54.689Z,14.03
2023-05-06T18:32:42.713Z,4.40
2023-05-06T18:35:32.166Z,2.83
2023-05-06T18:38:20.172Z,5.33
2023-05-06T18:41:09.042Z,3.10
2023-05-06T18:43:59.287Z,2.43
2023-05-06T18:46:47.295Z,2.43
2023-05-06T18:49:35.497Z,2.60
2023-05-06T18:52:24.854Z,3.17
2023-05-06T18:55:13.247Z,2.80
2023-05-06T18:58:05.550Z,5.40
2023-05-06T19:00:54.457Z,2.27
2023-05-06T19:03:42.622Z,3.13
2023-05-06T19:06:31.553Z,3.67
2023-05-06T19:09:21.425Z,5.17
2023-05-06T19:12:09.512Z,2.73
2023-05-06T19:14:57.874Z,2.23
2023-05-06T19:17:46.068Z,3.30
2023-05-06T19:20:34.479Z,2.87
2023-05-06T19:23:22.426Z,4.43
2023-05-06T19:26:12.076Z,3.90
2023-05-06T19:29:00.050Z,2.53
2023-05-06T19:31:48.010Z,2.47
2023-05-06T19:34:35.987Z,3.17
2023-05-06T19:37:24.055Z,2.60
2023-05-06T19:40:12.558Z,2.43
2023-05-06T19:43:03.849Z,2.97
2023-05-06T19:45:51.874Z,2.90
2023-05-06T19:48:40.056Z,2.87
2023-05-06T19:51:28.305Z,4.53
2023-05-06T19:54:16.424Z,3.17
2023-05-06T19:57:04.516Z,3.20
2023-05-06T19:59:54.296Z,2.37
2023-05-06T20:02:42.426Z,2.57
2023-05-06T20:05:31.877Z,4.07
2023-05-06T20:08:19.962Z,2.60
2023-05-06T20:11:08.009Z,3.90
2023-05-06T20:13:56.079Z,3.53
2023-05-06T20:16:45.555Z,3.43
2023-05-06T20:19:33.865Z,3.40
2023-05-06T20:22:22.230Z,3.03
2023-05-06T20:25:12.051Z,4.07
2023-05-06T20:28:00.745Z,3.13
2023-05-06T20:30:49.994Z,3.77
2023-05-06T20:33:39.267Z,3.37
2023-05-06T20:36:27.334Z,3.53
2023-05-06T20:39:15.413Z,3.83
2023-05-06T20:42:03.415Z,3.90
2023-05-06T20:44:52.424Z,3.33
2023-05-06T20:47:40.692Z,6.13
2023-05-06T20:50:30.792Z,3.40
2023-05-06T20:53:18.832Z,4.37
2023-05-06T20:56:07.901Z,3.00
2023-05-06T20:58:56.796Z,3.37
2023-05-06T21:01:44.831Z,3.87
2023-05-06T21:04:33.235Z,4.73
2023-05-06T21:07:22.722Z,3.50
2023-05-06T21:10:12.022Z,3.93
2023-05-06T21:13:00.602Z,4.77
2023-05-06T21:15:48.769Z,5.07
2023-05-06T21:18:37.741Z,5.03
2023-05-06T21:21:26.065Z,3.50
2023-05-06T21:24:15.689Z,4.50
2023-05-06T21:27:03.716Z,4.50
2023-05-06T21:29:51.746Z,4.50
2023-05-06T21:32:40.095Z,3.77
2023-05-06T21:35:28.368Z,3.50
2023-05-06T21:38:16.563Z,4.23
2023-05-06T21:41:05.941Z,3.77
2023-05-06T21:43:53.925Z,3.80
2023-05-06T21:46:42.295Z,4.23
2023-05-06T21:49:30.343Z,4.20
2023-05-06T21:52:18.347Z,4.33
2023-05-06T21:55:07.454Z,3.70
2023-05-06T21:57:56.809Z,4.77
2023-05-06T22:00:44.780Z,4.70
2023-05-06T22:03:32.987Z,3.80
2023-05-06T22:06:21.281Z,3.80
2023-05-06T22:09:09.982Z,4.63
2023-05-06T22:11:57.986Z,5.07
2023-05-06T22:14:47.351Z,5.13
2023-05-06T22:17:35.725Z,4.03
2023-05-06T22:20:23.746Z,4.70
2023-05-06T22:23:12.395Z,4.17
2023-05-06T22:26:01.081Z,4.13
2023-05-06T22:28:49.077Z,4.63
2023-05-06T22:31:38.460Z,4.30
2023-05-06T22:34:26.465Z,4.67
2023-05-06T22:37:14.783Z,4.07
2023-05-06T22:40:02.790Z,4.47
2023-05-06T22:42:52.696Z,4.43
2023-05-06T22:45:40.891Z,4.83
2023-05-06T22:48:31.632Z,4.63
2023-05-06T22:51:21.082Z,4.37
2023-05-06T22:54:09.048Z,4.40
2023-05-06T22:56:57.082Z,3.93
2023-05-06T22:59:45.402Z,4.13
2023-05-06T23:02:33.451Z,4.07
2023-05-06T23:05:22.978Z,3.77
2023-05-06T23:08:11.061Z,6.30
2023-05-06T23:10:59.271Z,4.20
2023-05-06T23:13:47.365Z,4.83
2023-05-06T23:16:35.597Z,5.87
2023-05-06T23:19:23.625Z,5.20
2023-05-06T23:22:13.292Z,7.43
2023-05-06T23:25:01.199Z,5.20
2023-05-06T23:27:49.202Z,6.33
2023-05-06T23:30:37.413Z,5.83
2023-05-06T23:33:25.526Z,9.93
2023-05-06T23:36:13.578Z,5.90
2023-05-06T23:39:03.124Z,7.83
2023-05-06T23:41:51.353Z,6.23
2023-05-06T23:44:39.357Z,5.63
2023-05-06T23:47:27.470Z,6.00
2023-05-06T23:50:15.626Z,6.00
2023-05-06T23:53:04.043Z,6.23
2023-05-06T23:55:53.386Z,4.73
2023-05-06T23:58:41.337Z,5.23
